Time;durP1;ratioP1;P1;durP2;ratioP2;P2;SDS_P1;SDS_P2;PMS_P1;PMS_P2;Temp;Humidity;BMP_temperature;BMP_pressure;BME280_temperature;BME280_humidity;BME280_pressure;Samples;Min_cycle;Max_cycle;Signal;HPM_P1;HPM_P2
2022/06/27 00:01:12;;;;;;;1.40;1.00;;;;;;;;;;5132347;27;20973;-69
2022/06/27 00:03:39;;;;;;;1.20;0.93;;;;;;;;;;5133305;27;20455;-70
2022/06/27 00:06:06;;;;;;;0.87;0.80;;;;;;;;;;5132120;27;20447;-71
2022/06/27 00:08:34;;;;;;;0.90;0.80;;;;;;;;;;5132385;27;20493;-70
2022/06/27 00:11:02;;;;;;;1.33;0.77;;;;;;;;;;5132943;27;20476;-70
2022/06/27 00:13:30;;;;;;;0.70;0.60;;;;;;;;;;5135264;27;20447;-70
2022/06/27 00:15:57;;;;;;;0.70;0.50;;;;;;;;;;5132043;27;20435;-70
2022/06/27 00:18:24;;;;;;;0.80;0.60;;;;;;;;;;5132348;27;20439;-70
2022/06/27 00:20:53;;;;;;;0.70;0.50;;;;;;;;;;5132032;27;20443;-72
2022/06/27 00:23:20;;;;;;;0.90;0.60;;;;;;;;;;5133172;27;20442;-70
2022/06/27 00:25:47;;;;;;;0.60;0.50;;;;;;;;;;5132381;27;20435;-70
2022/06/27 00:28:14;;;;;;;1.30;0.60;;;;;;;;;;5131676;27;20467;-70
2022/06/27 00:30:43;;;;;;;1.17;0.87;;;;;;;;;;5132362;27;20474;-70
2022/06/27 00:33:10;;;;;;;0.73;0.57;;;;;;;;;;5131811;27;20486;-70
2022/06/27 00:35:38;;;;;;;1.00;0.67;;;;;;;;;;5132606;27;20443;-69
2022/06/27 00:38:05;;;;;;;1.00;0.67;;;;;;;;;;5130991;27;20439;-71
2022/06/27 00:40:32;;;;;;;0.90;0.70;;;;;;;;;;5132103;27;20450;-71
2022/06/27 00:42:59;;;;;;;1.47;0.60;;;;;;;;;;5132041;27;20449;-69
2022/06/27 00:45:26;;;;;;;2.03;0.63;;;;;;;;;;5132458;27;20530;-69
2022/06/27 00:47:55;;;;;;;7.67;0.90;;;;;;;;;;5131458;27;20443;-69
2022/06/27 00:50:22;;;;;;;15.37;1.20;;;;;;;;;;5130171;27;20451;-70
2022/06/27 00:52:49;;;;;;;22.07;0.97;;;23.60;99.90;;;;;;5132148;27;20482;-70
2022/06/27 00:55:16;;;;;;;33.30;1.30;;;17.40;99.90;;;;;;5131822;27;20536;-69
2022/06/27 00:57:44;;;;;;;38.83;1.80;;;17.70;99.90;;;;;;5131771;27;20446;-70
2022/06/27 01:00:12;;;;;;;41.07;1.73;;;17.50;99.90;;;;;;5131078;27;20900;-69
2022/06/27 01:02:39;;;;;;;39.40;1.60;;;17.90;99.90;;;;;;5132108;27;20448;-69
2022/06/27 01:05:08;;;;;;;40.37;1.63;;;18.00;99.90;;;;;;5131353;27;20439;-70
2022/06/27 01:07:35;;;;;;;38.93;1.40;;;18.10;99.90;;;;;;5130644;27;20435;-69
2022/06/27 01:10:02;;;;;;;39.50;1.70;;;17.90;99.90;;;;;;5130496;27;20470;-71
2022/06/27 01:12:30;;;;;;;40.50;1.60;;;18.00;99.90;;;;;;5143306;27;20451;-70
2022/06/27 01:14:57;;;;;;;40.40;1.70;;;17.90;99.90;;;;;;5131559;27;20446;-69
2022/06/27 01:17:24;;;;;;;39.80;1.60;;;;;;;;;;5131583;27;20435;-69
2022/06/27 01:19:52;;;;;;;40.10;1.80;;;;;;;;;;5130998;27;20447;-74
2022/06/27 01:22:20;;;;;;;39.33;1.40;;;;;;;;;;5132064;28;20457;-69
2022/06/27 01:24:47;;;;;;;38.00;1.47;;;;;;;;;;5131655;28;20854;-69
2022/06/27 01:27:15;;;;;;;37.30;1.33;;;;;;;;;;5131152;27;20443;-70
2022/06/27 01:29:42;;;;;;;38.17;1.50;;;;;;;;;;5135343;27;21007;-70
2022/06/27 01:32:09;;;;;;;38.00;1.40;;;;;;;;;;5135054;27;20471;-70
2022/06/27 01:34:37;;;;;;;37.93;1.50;;;;;;;;;;5136072;27;20435;-70
2022/06/27 01:37:04;;;;;;;38.30;1.50;;;;;;;;;;5135229;27;20576;-70
2022/06/27 01:39:33;;;;;;;38.40;1.37;;;;;;;;;;5135566;27;20442;-70
2022/06/27 01:42:01;;;;;;;39.00;1.40;;;;;;;;;;5135328;27;20858;-69
2022/06/27 01:44:29;;;;;;;38.67;1.30;;;;;;;;;;5135935;27;20442;-70
2022/06/27 01:47:02;;;;;;;38.90;1.20;;;;;;;;;;5134816;27;20447;-70
2022/06/27 01:49:30;;;;;;;40.80;1.43;;;;;;;;;;5135057;27;20462;-70
2022/06/27 01:51:58;;;;;;;42.03;1.60;;;;;;;;;;5134810;27;20442;-70
2022/06/27 01:54:26;;;;;;;40.43;1.40;;;;;;;;;;5135111;27;20443;-70
2022/06/27 01:56:54;;;;;;;40.63;1.30;;;;;;;;;;5134966;27;20435;-70
2022/06/27 01:59:23;;;;;;;40.00;1.37;;;;;;;;;;5135016;27;20451;-71
2022/06/27 02:01:50;;;;;;;39.37;1.50;;;;;;;;;;5134895;27;20451;-70
2022/06/27 02:04:17;;;;;;;39.80;1.60;;;;;;;;;;5135032;27;20534;-70
2022/06/27 02:06:45;;;;;;;38.73;1.43;;;;;;;;;;5135401;27;20431;-70
2022/06/27 02:09:13;;;;;;;38.43;1.33;;;;;;;;;;5134427;27;20565;-70
2022/06/27 02:11:42;;;;;;;38.27;1.40;;;;;;;;;;5141435;27;20457;-69
2022/06/27 02:14:10;;;;;;;37.40;1.50;;;;;;;;;;5138879;27;20724;-70
2022/06/27 02:16:39;;;;;;;40.23;1.47;;;;;;;;;;5135196;27;20441;-70
2022/06/27 02:19:07;;;;;;;37.57;1.30;;;;;;;;;;5133820;27;20446;-70
2022/06/27 02:21:34;;;;;;;38.37;1.17;;;;;;;;;;5134787;27;20447;-69
2022/06/27 02:24:01;;;;;;;36.83;1.10;;;;;;;;;;5131083;27;20435;-69
2022/06/27 02:26:29;;;;;;;37.07;1.20;;;;;;;;;;5135049;27;20440;-70
2022/06/27 02:28:57;;;;;;;37.40;1.43;;;;;;;;;;5133248;27;21033;-68
2022/06/27 02:31:25;;;;;;;38.00;1.30;;;;;;;;;;5134495;27;20951;-70
2022/06/27 02:33:54;;;;;;;37.80;1.40;;;;;;;;;;5133841;27;20531;-70
2022/06/27 02:36:21;;;;;;;37.33;1.20;;;;;;;;;;5134440;27;20443;-68
2022/06/27 02:38:50;;;;;;;38.27;1.57;;;;;;;;;;5134103;27;20442;-69
2022/06/27 02:41:17;;;;;;;38.87;1.80;;;;;;;;;;5135087;27;20456;-69
2022/06/27 02:43:46;;;;;;;37.10;1.20;;;;;;;;;;5134475;27;20763;-69
2022/06/27 02:46:13;;;;;;;37.70;1.53;;;;;;;;;;5134262;27;20526;-70
2022/06/27 02:48:43;;;;;;;37.60;1.50;;;;;;;;;;5133774;27;21006;-69
2022/06/27 02:51:11;;;;;;;37.40;1.30;;;;;;;;;;5133545;27;20588;-68
2022/06/27 02:53:44;;;;;;;37.07;1.20;;;;;;;;;;5134320;27;20435;-69
2022/06/27 02:56:11;;;;;;;37.27;1.43;;;;;;;;;;5134013;27;20446;-69
2022/06/27 02:58:43;;;;;;;37.17;1.30;;;;;;;;;;5133677;27;20443;-68
2022/06/27 03:01:11;;;;;;;37.60;1.50;;;;;;;;;;5133634;27;20439;-70
2022/06/27 03:03:38;;;;;;;37.07;1.53;;;;;;;;;;5134165;27;20458;-71
2022/06/27 03:06:07;;;;;;;38.53;1.50;;;;;;;;;;5133662;27;20439;-70
2022/06/27 03:08:38;;;;;;;37.27;1.40;;;;;;;;;;5133713;27;20441;-69
2022/06/27 03:11:06;;;;;;;38.93;1.60;;;;;;;;;;5134003;27;20488;-69
2022/06/27 03:13:33;;;;;;;37.40;1.47;;;;;;;;;;5138649;27;20447;-71
2022/06/27 03:16:00;;;;;;;38.00;1.27;;;;;;;;;;5133650;27;20758;-69
2022/06/27 03:18:27;;;;;;;38.70;1.40;;;;;;;;;;5133676;27;20454;-69
2022/06/27 03:20:54;;;;;;;38.83;1.57;;;;;;;;;;5132623;27;20445;-69
2022/06/27 03:23:23;;;;;;;39.80;1.80;;;;;;;;;;5134019;27;20439;-72
2022/06/27 03:25:50;;;;;;;40.30;1.50;;;;;;;;;;5133680;27;20450;-69
2022/06/27 03:28:17;;;;;;;40.17;1.40;;;;;;;;;;5133700;27;20435;-69
2022/06/27 03:30:44;;;;;;;41.20;1.77;;;;;;;;;;5132346;27;20469;-69
2022/06/27 03:33:11;;;;;;;40.27;1.60;;;;;;;;;;5132989;27;20889;-69
2022/06/27 03:35:39;;;;;;;40.87;1.80;;;;;;;;;;5133174;27;20937;-69
2022/06/27 03:38:06;;;;;;;40.37;1.30;;;;;;;;;;5132819;27;20443;-70
2022/06/27 03:40:35;;;;;;;40.70;1.70;;;;;;;;;;5133310;27;20439;-69
2022/06/27 03:43:02;;;;;;;40.73;1.63;;;;;;;;;;5133074;27;20496;-72
2022/06/27 03:45:29;;;;;;;40.53;1.93;;;;;;;;;;5132829;27;21935;-69
2022/06/27 03:47:57;;;;;;;41.67;2.00;;;;;;;;;;5132409;27;20917;-69
2022/06/27 03:50:23;;;;;;;40.30;1.67;;;;;;;;;;5132326;27;20484;-69
2022/06/27 03:52:51;;;;;;;42.37;1.77;;;;;;;;;;5133216;27;20482;-69
2022/06/27 03:55:18;;;;;;;39.60;1.63;;;;;;;;;;5133350;27;20442;-69
2022/06/27 03:57:50;;;;;;;39.40;2.03;;;;;;;;;;5132239;27;20439;-69
2022/06/27 04:00:18;;;;;;;37.83;1.60;;;;;;;;;;5133066;27;20435;-70
2022/06/27 04:02:45;;;;;;;37.73;1.43;;;;;;;;;;5133324;27;20461;-70
2022/06/27 04:05:12;;;;;;;38.10;1.57;;;;;;;;;;5132031;27;20530;-69
2022/06/27 04:07:39;;;;;;;40.57;1.70;;;;;;;;;;5132571;27;20445;-71
2022/06/27 04:10:07;;;;;;;41.00;2.13;;;;;;;;;;5132593;27;20485;-69
2022/06/27 04:12:34;;;;;;;40.07;1.80;;;;;;;;;;5143370;27;20447;-69
2022/06/27 04:15:03;;;;;;;38.93;1.50;;;;;;;;;;5132839;27;20465;-69
2022/06/27 04:17:30;;;;;;;38.00;1.37;;;;;;;;;;5133276;27;20453;-68
2022/06/27 04:19:57;;;;;;;39.37;1.60;;;;;;;;;;5132121;27;20442;-70
2022/06/27 04:22:24;;;;;;;39.50;1.90;;;;;;;;;;5132668;27;20449;-68
2022/06/27 04:24:52;;;;;;;39.60;2.00;;;;;;;;;;5131932;27;20447;-72
2022/06/27 04:27:20;;;;;;;38.93;1.70;;;;;;;;;;5132575;27;20438;-69
2022/06/27 04:29:48;;;;;;;38.93;1.70;;;;;;;;;;5131819;27;20475;-69
2022/06/27 04:32:16;;;;;;;38.30;1.40;;;;;;;;;;5131890;27;20477;-69
2022/06/27 04:34:44;;;;;;;39.10;2.13;;;;;;;;;;5132881;27;20847;-71
2022/06/27 04:37:11;;;;;;;38.53;1.50;;;;;;;;;;5132190;27;20704;-72
2022/06/27 04:39:40;;;;;;;39.10;1.70;;;;;;;;;;5140824;27;20435;-73
2022/06/27 04:42:07;;;;;;;39.30;1.50;;;;;;;;;;5131871;27;20449;-72
2022/06/27 04:44:35;;;;;;;39.60;1.67;;;;;;;;;;5132469;27;20496;-73
2022/06/27 04:47:04;;;;;;;40.00;1.70;;;;;;;;;;5131555;27;20509;-72
2022/06/27 04:49:32;;;;;;;40.90;1.70;;;;;;;;;;5132022;27;20474;-70
2022/06/27 04:52:00;;;;;;;41.27;1.63;;;;;;;;;;5131599;27;20484;-69
2022/06/27 04:54:28;;;;;;;39.87;2.10;;;;;;;;;;5132598;27;20457;-71
2022/06/27 04:56:55;;;;;;;39.37;1.67;;;;;;;;;;5131255;27;20455;-67
2022/06/27 04:59:23;;;;;;;39.80;2.10;;;;;;;;;;5125799;27;20451;-74
2022/06/27 05:01:50;;;;;;;40.33;1.50;;;;;;;;;;5132286;27;20451;-73
2022/06/27 05:04:18;;;;;;;40.90;2.07;;;;;;;;;;5132144;27;20478;-71
2022/06/27 05:06:46;;;;;;;42.20;2.47;;;;;;;;;;5132212;27;20435;-71
2022/06/27 05:09:14;;;;;;;40.90;1.77;;;;;;;;;;5131103;27;20437;-73
2022/06/27 05:11:41;;;;;;;41.00;1.90;;;;;;;;;;5131997;27;20439;-72
2022/06/27 05:14:09;;;;;;;40.97;1.90;;;18.10;99.90;;;;;;5131346;27;20443;-75
2022/06/27 05:16:36;;;;;;;41.20;1.97;;;19.00;99.90;;;;;;5130866;27;20427;-70
2022/06/27 05:19:03;;;;;;;41.17;1.93;;;19.10;99.90;;;;;;5131278;27;20442;-71
2022/06/27 05:21:30;;;;;;;43.57;2.00;;;;;;;;;;5132042;27;20446;-70
2022/06/27 05:23:59;;;;;;;39.70;1.90;;;;;;;;;;5131461;27;20453;-70
2022/06/27 05:26:26;;;;;;;38.00;1.40;;;;;;;;;;5131671;28;20435;-69
2022/06/27 05:28:53;;;;;;;37.90;1.60;;;;;;;;;;5131381;28;20518;-69
2022/06/27 05:31:20;;;;;;;37.90;1.50;;;;;;;;;;5131763;28;20474;-69
2022/06/27 05:33:47;;;;;;;37.77;1.57;;;;;;;;;;5132101;28;20482;-71
2022/06/27 05:36:14;;;;;;;37.47;1.47;;;;;;;;;;5131039;28;20439;-70
2022/06/27 05:38:42;;;;;;;37.63;1.53;;;;;;;;;;5131484;28;20450;-71
2022/06/27 05:41:12;;;;;;;36.80;1.30;;;;;;;;;;5131531;28;20538;-71
2022/06/27 05:43:39;;;;;;;38.27;1.60;;;;;;;;;;5131739;28;20446;-71
2022/06/27 05:46:07;;;;;;;37.10;1.50;;;;;;;;;;5130666;28;20446;-71
2022/06/27 05:48:34;;;;;;;37.27;1.50;;;;;;;;;;5131867;28;20435;-71
2022/06/27 05:51:02;;;;;;;37.43;1.53;;;;;;;;;;5130897;28;20483;-71
2022/06/27 05:53:30;;;;;;;37.57;1.30;;;;;;;;;;5131398;28;20463;-71
2022/06/27 05:55:57;;;;;;;38.70;1.70;;;;;;;;;;5130572;28;20790;-71
2022/06/27 05:58:26;;;;;;;39.13;1.80;;;;;;;;;;5131264;28;20458;-71
2022/06/27 06:00:54;;;;;;;37.57;1.50;;;;;;;;;;5131082;28;20467;-73
2022/06/27 06:03:21;;;;;;;34.50;1.43;;;;;;;;;;5131376;28;20487;-71
2022/06/27 06:05:49;;;;;;;33.00;1.17;;;;;;;;;;5130652;28;20496;-71
2022/06/27 06:08:16;;;;;;;34.60;1.40;;;;;;;;;;5130655;28;20449;-71
2022/06/27 06:10:43;;;;;;;34.27;1.60;;;;;;;;;;5131143;28;20526;-71
2022/06/27 06:13:10;;;;;;;32.00;1.40;;;;;;;;;;5141697;27;20451;-71
2022/06/27 06:15:40;;;;;;;27.37;1.23;;;;;;;;;;5134066;27;20450;-71
2022/06/27 06:18:08;;;;;;;26.20;1.47;;;;;;;;;;5134540;27;20446;-71
2022/06/27 06:20:35;;;;;;;25.60;1.40;;;;;;;;;;5135128;27;20469;-71
2022/06/27 06:23:02;;;;;;;25.50;1.13;;;;;;;;;;5134367;27;20475;-70
2022/06/27 06:25:30;;;;;;;25.10;1.37;;;;;;;;;;5135059;27;20450;-70
2022/06/27 06:28:01;;;;;;;25.93;1.10;;;;;;;;;;5134643;27;20797;-70
2022/06/27 06:30:29;;;;;;;23.87;1.40;;;;;;;;;;5135229;27;20471;-69
2022/06/27 06:33:02;;;;;;;19.50;1.10;;;;;;;;;;5134108;27;20474;-70
2022/06/27 06:35:30;;;;;;;12.57;1.10;;;;;;;;;;5134379;27;20519;-70
2022/06/27 06:37:58;;;;;;;10.10;0.73;;;;;;;;;;5134408;27;20447;-70
2022/06/27 06:40:25;;;;;;;8.60;0.90;;;;;;;;;;5134904;27;20495;-70
2022/06/27 06:42:52;;;;;;;9.33;1.57;;;;;;;;;;5134294;27;20457;-72
2022/06/27 06:45:19;;;;;;;4.73;0.80;;;;;;;;;;5135115;27;20443;-70
2022/06/27 06:47:48;;;;;;;4.13;0.90;;;;;;;;;;5134467;27;20447;-70
2022/06/27 06:50:18;;;;;;;2.93;0.90;;;;;;;;;;5133709;27;21006;-70
2022/06/27 06:52:46;;;;;;;1.60;0.90;;;;;;;;;;5134593;27;20913;-70
2022/06/27 06:55:15;;;;;;;1.40;0.70;;;;;;;;;;5134380;27;20495;-70
2022/06/27 06:57:42;;;;;;;2.07;1.00;;;;;;;;;;5133915;27;20458;-70
2022/06/27 07:00:11;;;;;;;1.50;0.90;;;;;;;;;;5134246;27;20807;-70
2022/06/27 07:02:38;;;;;;;2.60;0.70;;;;;;;;;;5134274;27;20451;-70
2022/06/27 07:05:08;;;;;;;2.33;0.90;;;;;;;;;;5133997;27;20446;-70
2022/06/27 07:07:37;;;;;;;1.30;0.80;;;;;;;;;;5133688;27;20454;-70
2022/06/27 07:10:05;;;;;;;1.20;0.90;;;;;;;;;;5133906;27;20445;-70
2022/06/27 07:12:33;;;;;;;1.20;1.00;;;;;;;;;;5145458;27;20450;-70
2022/06/27 07:15:00;;;;;;;1.53;1.03;;;;;;;;;;5133902;27;20466;-70
2022/06/27 07:17:28;;;;;;;1.20;0.77;;;;;;;;;;5133789;27;20461;-70
2022/06/27 07:19:56;;;;;;;1.57;0.90;;;;;;;;;;5133444;27;20458;-70
2022/06/27 07:22:27;;;;;;;0.90;0.80;;;;;;;;;;5133721;27;20455;-70
2022/06/27 07:24:55;;;;;;;1.27;0.70;;;;;;;;;;5132813;27;20454;-70
2022/06/27 07:27:23;;;;;;;0.80;0.50;;;;;;;;;;5133058;27;20443;-70
2022/06/27 07:29:51;;;;;;;0.83;0.63;;;;;;;;;;5134194;27;20486;-69
2022/06/27 07:32:18;;;;;;;2.17;0.80;;;;;;;;;;5133718;27;20518;-70
2022/06/27 07:34:45;;;;;;;0.90;0.50;;;;;;;;;;5134002;27;20546;-70
2022/06/27 07:37:12;;;;;;;0.90;0.70;;;;;;;;;;5133051;27;20451;-70
2022/06/27 07:39:40;;;;;;;0.80;0.50;;;;;;;;;;5133449;27;20448;-70
2022/06/27 07:42:09;;;;;;;0.70;0.50;;;;;;;;;;5132778;27;20482;-70
2022/06/27 07:44:36;;;;;;;1.50;0.77;;;;;;;;;;5133388;27;20496;-70
2022/06/27 07:47:04;;;;;;;1.17;0.80;;;;;;;;;;5132249;27;20446;-69
2022/06/27 07:49:32;;;;;;;1.10;0.90;;;;;;;;;;5133367;27;20964;-69
2022/06/27 07:51:59;;;;;;;1.07;0.97;;;;;;;;;;5132962;27;20489;-69
2022/06/27 07:54:27;;;;;;;1.10;1.00;;;;;;;;;;5133003;27;20443;-70
2022/06/27 07:56:55;;;;;;;0.90;0.80;;;;;;;;;;5132325;27;20933;-70
2022/06/27 07:59:26;;;;;;;0.80;0.70;;;;;;;;;;5133116;27;20992;-70
2022/06/27 08:01:53;;;;;;;0.73;0.70;;;;;;;;;;5132516;27;20480;-70
2022/06/27 08:04:20;;;;;;;1.20;0.70;;;;;;;;;;5133029;27;20451;-70
2022/06/27 08:06:50;;;;;;;0.70;0.60;;;;;;;;;;5132881;27;20443;-70
2022/06/27 08:09:19;;;;;;;1.00;0.70;;;;;;;;;;5133174;27;20445;-70
2022/06/27 08:11:46;;;;;;;0.70;0.70;;;;;;;;;;5140517;27;20879;-71
2022/06/27 08:14:16;;;;;;;1.60;0.80;;;;;;;;;;5136775;27;20457;-71
2022/06/27 08:16:45;;;;;;;0.80;0.60;;;;;;;;;;5132773;27;20469;-69
2022/06/27 08:19:13;;;;;;;1.07;0.90;;;;;;;;;;5132332;27;20554;-70
2022/06/27 08:21:43;;;;;;;1.77;0.60;;;;;;;;;;5132966;27;20511;-70
2022/06/27 08:24:16;;;;;;;0.70;0.53;;;;;;;;;;5132038;27;20435;-70
2022/06/27 08:26:45;;;;;;;1.93;0.93;;;;;;;;;;5132345;27;20502;-70
2022/06/27 08:29:12;;;;;;;1.10;0.73;;;;;;;;;;5132051;27;20609;-70
2022/06/27 08:31:41;;;;;;;0.90;0.77;;;;;;;;;;5132635;27;20496;-70
2022/06/27 08:34:12;;;;;;;0.83;0.63;;;;;;;;;;5132248;27;20575;-70
2022/06/27 08:36:40;;;;;;;0.70;0.60;;;;;;;;;;5131715;27;20942;-70
2022/06/27 08:39:11;;;;;;;0.80;0.53;;;;;;;;;;5118494;27;20442;-71
2022/06/27 08:41:38;;;;;;;1.53;0.67;;;;;;;;;;5132635;27;20474;-71
2022/06/27 08:44:06;;;;;;;0.80;0.70;;;;;;;;;;5131810;27;20874;-71
2022/06/27 08:46:34;;;;;;;0.90;0.73;;;;;;;;;;5131731;27;20447;-70
2022/06/27 08:49:02;;;;;;;1.20;0.70;;;;;;;;;;5132062;27;20496;-70
2022/06/27 08:51:31;;;;;;;1.90;0.90;;;;;;;;;;5132358;27;20866;-70
2022/06/27 08:53:59;;;;;;;0.80;0.63;;;;;;;;;;5131447;27;20945;-71
2022/06/27 08:56:28;;;;;;;0.80;0.63;;;;;;;;;;5132013;27;20808;-71
2022/06/27 08:58:58;;;;;;;0.80;0.63;;;;;;;;;;5131871;27;20800;-71
2022/06/27 09:01:27;;;;;;;1.23;0.80;;;;;;;;;;5132328;27;20446;-70
2022/06/27 09:04:01;;;;;;;1.03;0.80;;;;;;;;;;5131722;27;20459;-71
2022/06/27 09:06:30;;;;;;;1.17;0.77;;;19.20;99.90;;;;;;5131463;27;20926;-70
2022/06/27 09:09:08;;;;;;;0.80;0.60;;;22.80;99.90;;;;;;5131572;27;20435;-70
2022/06/27 09:11:37;;;;;;;0.90;0.80;;;22.50;1.00;;;;;;5124896;27;20521;-71
2022/06/27 09:14:05;;;;;;;1.03;0.80;;;22.60;1.00;;;;;;5136064;27;20434;-70
2022/06/27 09:16:32;;;;;;;0.80;0.60;;;22.40;99.90;;;;;;5131849;27;20439;-71
2022/06/27 09:18:59;;;;;;;1.73;0.90;;;22.40;94.80;;;;;;5131401;27;20447;-71
2022/06/27 09:21:27;;;;;;;1.37;1.00;;;22.40;1.00;;;;;;5132034;27;20447;-70
2022/06/27 09:23:58;;;;;;;0.80;0.70;;;22.60;99.90;;;;;;5130945;27;20447;-70
2022/06/27 09:26:27;;;;;;;0.70;0.60;;;22.50;1.00;;;;;;5131711;27;20434;-70
2022/06/27 09:28:56;;;;;;;0.93;0.70;;;22.60;99.90;;;;;;5131439;28;20446;-69
2022/06/27 09:31:48;;;;;;;0.70;0.60;;;22.80;1.00;;;;;;5131859;28;20485;-71
2022/06/27 09:34:18;;;;;;;1.20;0.60;;;22.70;1.00;;;;;;5112245;28;20525;-70
2022/06/27 09:36:50;;;;;;;0.70;0.60;;;22.80;99.90;;;;;;5131699;28;20933;-70
2022/06/27 09:39:28;;;;;;;3.03;0.90;;;22.70;99.90;;;;;;5132910;28;20435;-69
2022/06/27 09:41:58;;;;;;;1.63;0.90;;;22.50;99.90;;;;;;5132054;28;20443;-70
2022/06/27 09:44:28;;;;;;;1.10;0.87;;;22.60;94.50;;;;;;5131932;28;20435;-71
2022/06/27 09:47:04;;;;;;;0.90;0.80;;;22.90;1.00;;;;;;5130997;28;20446;-71
2022/06/27 09:49:33;;;;;;;1.00;0.70;;;23.00;1.00;;;;;;5133876;27;20435;-70
2022/06/27 09:52:04;;;;;;;1.07;0.63;;;23.20;99.90;;;;;;5135286;27;20849;-70
2022/06/27 09:54:32;;;;;;;1.50;1.00;;;;;;;;;;5082752;27;20508;-70
2022/06/27 09:57:00;;;;;;;3.67;1.67;;;23.20;99.90;;;;;;5134622;27;20815;-70
2022/06/27 09:59:27;;;;;;;1.43;1.00;;;23.00;99.90;;;;;;5135808;27;20858;-70
2022/06/27 10:01:56;;;;;;;1.50;1.30;;;22.70;1.00;;;;;;5135197;27;20773;-71
2022/06/27 10:04:24;;;;;;;1.73;0.97;;;22.70;1.00;;;;;;5135648;27;20811;-71
2022/06/27 10:06:53;;;;;;;1.10;1.00;;;23.00;99.90;;;;;;5135344;27;20446;-71
2022/06/27 10:09:24;;;;;;;2.80;1.00;;;23.00;1.00;;;;;;5135581;27;20438;-71
2022/06/27 10:12:24;;;;;;;0.80;0.60;;;22.90;99.90;;;;;;5142851;27;20935;-71
2022/06/27 10:15:23;;;;;;;1.40;1.30;;;23.00;99.90;;;;;;5116670;27;20457;-71
2022/06/27 10:17:52;;;;;;;0.83;0.77;;;22.90;1.00;;;;;;5135131;27;20438;-70
2022/06/27 10:20:20;;;;;;;1.20;1.03;;;22.80;1.00;;;;;;5135718;27;20443;-70
2022/06/27 10:23:28;;;;;;;0.97;0.90;;;22.70;99.90;;;;;;5122048;27;20455;-70
2022/06/27 10:25:56;;;;;;;1.43;0.90;;;22.60;1.00;;;;;;5134002;27;20522;-70
2022/06/27 10:28:25;;;;;;;1.53;1.10;;;22.50;99.90;;;;;;5135355;27;20466;-70
2022/06/27 10:30:54;;;;;;;1.37;1.20;;;22.80;1.00;;;;;;5134549;27;20537;-71
2022/06/27 10:33:40;;;;;;;1.97;0.97;;;22.60;99.90;;;;;;5134714;27;20470;-70
2022/06/27 10:36:14;;;;;;;1.03;0.93;;;22.80;99.90;;;;;;5134170;27;20446;-70
2022/06/27 10:38:53;;;;;;;1.60;1.30;;;22.90;1.00;;;;;;5134971;27;20459;-70
2022/06/27 10:41:39;;;;;;;1.77;1.37;;;22.80;1.00;;;;;;5135370;27;20463;-70
2022/06/27 10:44:29;;;;;;;1.43;1.20;;;22.60;1.00;;;;;;5122474;27;20469;-70
2022/06/27 10:46:56;;;;;;;1.33;1.23;;;22.50;91.00;;;;;;5133541;27;20492;-70
2022/06/27 10:49:25;;;;;;;1.33;1.17;;;22.50;15.50;;;;;;5134688;27;20446;-70
2022/06/27 10:51:53;;;;;;;1.60;1.20;;;22.40;99.90;;;;;;5133897;27;20482;-70
2022/06/27 10:54:20;;;;;;;1.80;1.40;;;22.20;99.90;;;;;;5134526;27;20443;-71
2022/06/27 10:56:50;;;;;;;1.57;1.30;;;22.20;99.90;;;;;;5134456;27;20526;-72
2022/06/27 11:00:04;;;;;;;1.50;1.30;;;22.20;99.90;;;;;;5134703;27;20447;-70
2022/06/27 11:02:34;;;;;;;2.30;1.00;;;22.30;1.00;;;;;;5121993;27;20459;-71
2022/06/27 11:05:01;;;;;;;1.10;1.00;;;22.40;46.10;;;;;;5133697;27;20443;-71
2022/06/27 11:07:29;;;;;;;1.63;1.53;;;22.50;99.90;;;;;;5134669;27;20526;-71
2022/06/27 11:09:56;;;;;;;1.43;1.27;;;22.60;1.00;;;;;;5133800;27;20529;-70
2022/06/27 11:12:30;;;;;;;1.57;1.40;;;22.50;25.40;;;;;;5145764;27;20492;-70
2022/06/27 11:14:58;;;;;;;1.50;1.33;;;22.70;1.00;;;;;;5133921;27;20438;-71
2022/06/27 11:17:35;;;;;;;1.30;1.20;;;22.50;17.50;;;;;;5134240;27;20443;-70
2022/06/27 11:20:16;;;;;;;1.60;1.40;;;22.40;99.90;;;;;;5133571;27;20439;-70
2022/06/27 11:22:44;;;;;;;1.03;0.97;;;22.30;1.00;;;;;;5134279;27;20443;-70
2022/06/27 11:25:12;;;;;;;1.37;1.27;;;22.60;99.90;;;;;;5132909;27;20702;-70
2022/06/27 11:31:57;;;;;;;1.57;1.47;;;22.70;1.00;;;;;;5133725;27;20443;-70
2022/06/27 11:33:35;;;;;;;1.50;1.40;;;22.40;99.90;;;;;;5133690;27;20542;-70
2022/06/27 11:36:04;;;;;;;1.83;1.27;;;22.60;99.90;;;;;;5132771;27;20526;-70
2022/06/27 11:38:33;;;;;;;1.87;1.67;;;22.80;1.00;;;;;;5133720;27;20443;-70
2022/06/27 11:41:06;;;;;;;1.30;1.17;;;22.60;99.90;;;;;;5132996;27;20449;-70
2022/06/27 11:43:57;;;;;;;1.30;1.20;;;22.70;1.00;;;;;;5133820;27;20445;-70
2022/06/27 11:46:35;;;;;;;1.50;1.23;;;22.70;99.90;;;;;;5133348;27;20435;-72
2022/06/27 11:49:06;;;;;;;1.33;1.23;;;23.00;1.00;;;;;;5133242;27;20443;-72
2022/06/27 11:51:35;;;;;;;0.77;0.77;;;22.90;99.90;;;;;;5133517;27;20458;-72
2022/06/27 11:54:05;;;;;;;1.50;1.40;;;22.80;99.90;;;;;;5132879;27;20530;-72
2022/06/27 11:56:35;;;;;;;1.30;1.20;;;22.60;99.90;;;;;;5133165;27;20466;-71
2022/06/27 11:59:04;;;;;;;1.33;1.23;;;22.50;64.10;;;;;;5133102;27;20450;-72
2022/06/27 12:01:31;;;;;;;1.80;1.17;;;22.50;99.90;;;;;;5133279;27;20793;-71
2022/06/27 12:04:14;;;;;;;1.20;1.00;;;22.40;1.00;;;;;;5132686;27;20448;-72
2022/06/27 12:06:42;;;;;;;1.30;1.20;;;22.40;99.90;;;;;;5131786;27;20866;-72
2022/06/27 12:09:09;;;;;;;1.50;1.40;;;;;;;;;;5132207;27;20929;-71
2022/06/27 12:11:36;;;;;;;4.10;1.60;;;;;;;;;;5137952;27;20525;-72
2022/06/27 12:14:04;;;;;;;1.60;1.50;;;;;;;;;;5138058;27;20447;-72
2022/06/27 12:16:44;;;;;;;1.40;1.30;;;;;;;;;;5132685;27;20439;-72
2022/06/27 12:19:13;;;;;;;2.53;1.23;;;;;;;;;;5132520;27;21236;-72
2022/06/27 12:21:40;;;;;;;1.30;1.20;;;;;;;;;;5132804;27;20449;-72
2022/06/27 12:24:08;;;;;;;1.90;1.50;;;;;;;;;;5131924;27;20539;-71
2022/06/27 12:26:35;;;;;;;2.33;1.90;;;;;;;;;;5132321;27;20450;-72
2022/06/27 12:29:03;;;;;;;1.37;1.20;;;;;;;;;;5132311;27;20488;-72
2022/06/27 12:31:30;;;;;;;1.80;1.50;;;;;;;;;;5132731;27;20447;-71
2022/06/27 12:33:57;;;;;;;1.43;1.17;;;;;;;;;;5132278;27;20843;-70
2022/06/27 12:36:25;;;;;;;1.40;1.30;;;;;;;;;;5132442;27;20530;-70
2022/06/27 12:38:53;;;;;;;1.70;1.33;;;;;;;;;;5131875;27;20447;-71
2022/06/27 12:41:20;;;;;;;1.30;1.20;;;;;;;;;;5132873;27;20461;-70
2022/06/27 12:43:47;;;;;;;1.13;1.03;;;;;;;;;;5132607;27;20937;-70
2022/06/27 12:46:15;;;;;;;1.70;1.50;;;;;;;;;;5131515;27;20475;-70
2022/06/27 12:48:43;;;;;;;1.23;1.13;;;;;;;;;;5132044;27;20998;-70
2022/06/27 12:51:10;;;;;;;1.30;1.13;;;;;;;;;;5131879;27;20457;-71
2022/06/27 12:53:39;;;;;;;2.87;1.60;;;;;;;;;;5131766;27;20478;-71
2022/06/27 12:56:07;;;;;;;1.53;1.27;;;;;;;;;;5131301;27;20465;-71
2022/06/27 12:58:34;;;;;;;2.20;1.40;;;;;;;;;;5132240;27;20446;-71
2022/06/27 13:01:02;;;;;;;1.53;1.37;;;;;;;;;;5131218;27;20442;-71
2022/06/27 13:03:29;;;;;;;1.67;1.30;;;;;;;;;;5131869;27;20964;-71
2022/06/27 13:05:56;;;;;;;2.17;1.70;;;;;;;;;;5130769;27;20988;-71
2022/06/27 13:08:24;;;;;;;1.67;1.57;;;;;;;;;;5131876;27;20929;-71
2022/06/27 13:10:53;;;;;;;2.37;1.50;;;;;;;;;;5131482;27;20449;-71
2022/06/27 13:13:20;;;;;;;1.80;1.40;;;;;;;;;;5143179;27;20573;-70
2022/06/27 13:15:47;;;;;;;1.70;1.23;;;;;;;;;;5131207;27;20447;-71
2022/06/27 13:18:14;;;;;;;1.50;1.40;;;;;;;;;;5131453;27;20508;-71
2022/06/27 13:20:41;;;;;;;1.97;1.27;;;;;;;;;;5131973;27;20769;-71
2022/06/27 13:23:08;;;;;;;1.40;1.30;;;;;;;;;;5131036;27;20461;-71
2022/06/27 13:25:35;;;;;;;1.30;1.20;;;;;;;;;;5131376;27;20793;-71
2022/06/27 13:28:04;;;;;;;1.47;1.23;;;;;;;;;;5131354;27;20454;-71
2022/06/27 13:30:31;;;;;;;1.67;1.30;;;;;;;;;;5131782;28;20447;-71
2022/06/27 13:32:58;;;;;;;1.30;1.20;;;;;;;;;;5130744;28;20502;-70
2022/06/27 13:35:26;;;;;;;2.97;1.47;;;;;;;;;;5131068;28;20821;-70
2022/06/27 13:37:53;;;;;;;2.30;1.13;;;;;;;;;;5131272;28;20446;-70
2022/06/27 13:40:20;;;;;;;1.37;1.27;;;;;;;;;;5131480;28;20928;-70
2022/06/27 13:42:48;;;;;;;1.40;1.20;;;;;;;;;;5131990;28;20458;-71
2022/06/27 13:45:17;;;;;;;1.20;0.97;;;;;;;;;;5130657;28;20453;-71
2022/06/27 13:47:44;;;;;;;1.67;1.20;;;;;;;;;;5131851;28;20443;-71
2022/06/27 13:50:12;;;;;;;1.30;1.10;;;;;;;;;;5130917;28;20871;-71
2022/06/27 13:52:39;;;;;;;2.00;1.37;;;;;;;;;;5131353;28;20489;-71
2022/06/27 13:55:07;;;;;;;1.27;1.13;;;;;;;;;;5130275;28;20526;-71
2022/06/27 13:57:34;;;;;;;1.40;1.00;;;;;;;;;;5131737;28;20471;-71
2022/06/27 14:00:03;;;;;;;1.40;1.30;;;;;;;;;;5130542;28;20443;-72
2022/06/27 14:02:31;;;;;;;1.07;0.97;;;;;;;;;;5129402;28;20470;-67
2022/06/27 14:04:59;;;;;;;1.77;1.20;;;;;;;;;;5129625;28;20439;-68
2022/06/27 14:07:40;;;;;;;1.23;1.00;;;;;;;;;;5130435;28;20451;-68
2022/06/27 14:10:08;;;;;;;1.10;0.93;;;;;;;;;;5129610;28;20771;-68
2022/06/27 14:12:36;;;;;;;1.00;0.80;;;;;;;;;;5131352;27;20514;-69
2022/06/27 14:15:03;;;;;;;1.10;1.00;;;;;;;;;;5128997;28;20454;-69
2022/06/27 14:17:31;;;;;;;1.20;1.10;;;;;;;;;;5129968;28;20443;-69
2022/06/27 14:19:59;;;;;;;1.23;1.10;;;;;;;;;;5129695;27;20445;-69
2022/06/27 14:22:26;;;;;;;3.40;1.33;;;;;;;;;;5129700;28;20439;-68